Time;durP1;ratioP1;P1;durP2;ratioP2;P2;SDS_P1;SDS_P2;PMS_P1;PMS_P2;Temp;Humidity;BMP_temperature;BMP_pressure;BME280_temperature;BME280_humidity;BME280_pressure;Samples;Min_cycle;Max_cycle;Signal;HPM_P1;HPM_P2
2021/01/28 00:02:17;;;;;;;78.30;24.52;;;7.90;99.90;;;;;;5065043;28;20027;-90
2021/01/28 00:04:43;;;;;;;175.73;30.38;;;7.90;99.90;;;;;;5033998;28;20029;-91
2021/01/28 00:07:08;;;;;;;112.47;24.23;;;7.90;99.90;;;;;;5030866;28;20043;-90
2021/01/28 00:09:34;;;;;;;101.47;24.23;;;7.90;99.90;;;;;;5017957;28;20084;-92
2021/01/28 00:12:00;;;;;;;101.93;26.08;;;7.90;99.90;;;;;;5051124;28;20017;-88
2021/01/28 00:14:26;;;;;;;81.28;21.38;;;7.90;99.90;;;;;;5052030;28;20352;-91
2021/01/28 00:16:51;;;;;;;100.03;23.65;;;7.90;99.90;;;;;;5051249;28;20033;-92
2021/01/28 00:19:17;;;;;;;70.32;20.42;;;7.90;99.90;;;;;;5032160;28;20029;-91
2021/01/28 00:21:43;;;;;;;103.28;25.00;;;7.90;99.90;;;;;;5032288;28;20027;-92
2021/01/28 00:24:09;;;;;;;95.07;23.40;;;7.90;99.90;;;;;;5029146;28;20033;-91
2021/01/28 00:26:34;;;;;;;102.88;23.55;;;7.90;99.90;;;;;;5031817;28;20049;-92
2021/01/28 00:29:00;;;;;;;87.85;23.95;;;7.90;99.90;;;;;;4997009;28;20021;-91
2021/01/28 00:31:26;;;;;;;83.07;21.15;;;8.00;99.90;;;;;;4996283;28;20026;-91
2021/01/28 00:33:51;;;;;;;105.22;23.33;;;7.90;99.90;;;;;;5010270;28;20022;-91
2021/01/28 00:36:17;;;;;;;94.13;24.33;;;7.90;99.90;;;;;;5009168;28;20033;-92
2021/01/28 00:38:43;;;;;;;112.40;24.88;;;7.90;99.90;;;;;;5026650;28;20121;-91
2021/01/28 00:41:11;;;;;;;101.68;24.13;;;7.90;99.90;;;;;;5015216;28;20389;-91
2021/01/28 00:43:36;;;;;;;122.93;26.67;;;7.90;99.90;;;;;;5016326;28;20025;-91
2021/01/28 00:46:04;;;;;;;129.90;28.60;;;8.00;99.90;;;;;;5017601;28;20083;-91
2021/01/28 00:48:30;;;;;;;89.88;24.60;;;8.00;99.90;;;;;;5026145;28;20154;-91
2021/01/28 00:50:57;;;;;;;131.40;27.20;;;7.90;99.90;;;;;;5040286;28;20053;-91
2021/01/28 00:53:23;;;;;;;107.78;23.17;;;7.90;99.90;;;;;;5020801;28;20036;-91
2021/01/28 00:55:49;;;;;;;112.07;23.92;;;8.00;99.90;;;;;;5026192;28;20038;-91
2021/01/28 00:58:17;;;;;;;118.93;26.55;;;8.00;99.90;;;;;;5042645;28;20032;-89
2021/01/28 01:00:44;;;;;;;125.03;27.35;;;8.00;99.90;;;;;;5044767;28;20026;-91
2021/01/28 01:03:12;;;;;;;136.63;26.10;;;7.90;99.90;;;;;;5041705;28;20112;-90
2021/01/28 01:05:39;;;;;;;123.00;28.52;;;7.90;99.90;;;;;;5031289;28;20033;-89
2021/01/28 01:08:13;;;;;;;86.57;24.52;;;7.90;99.90;;;;;;5022712;28;20025;-91
2021/01/28 01:10:44;;;;;;;106.75;24.40;;;7.90;99.90;;;;;;5037519;28;20026;-92
2021/01/28 01:13:13;;;;;;;100.35;22.45;;;7.90;99.90;;;;;;5035716;28;20030;-90
2021/01/28 01:15:39;;;;;;;184.48;29.70;;;8.00;99.90;;;;;;5044746;28;20041;-92
2021/01/28 01:18:07;;;;;;;122.32;25.35;;;8.00;99.90;;;;;;5003107;28;20040;-91
2021/01/28 01:20:33;;;;;;;94.15;23.83;;;7.90;99.90;;;;;;5048789;28;20036;-91
2021/01/28 01:22:58;;;;;;;128.30;25.23;;;8.00;99.90;;;;;;5010421;28;20037;-91
2021/01/28 01:25:24;;;;;;;148.50;29.05;;;8.00;99.90;;;;;;5039657;28;20527;-93
2021/01/28 01:27:50;;;;;;;112.45;23.95;;;8.00;99.90;;;;;;5042514;28;20108;-92
2021/01/28 01:30:19;;;;;;;101.45;22.20;;;8.00;99.90;;;;;;5050050;28;20052;-94
2021/01/28 01:32:45;;;;;;;137.85;27.90;;;8.00;99.90;;;;;;5033237;28;20030;-93
2021/01/28 01:35:13;;;;;;;154.85;29.45;;;7.90;99.90;;;;;;5017605;28;20483;-88
2021/01/28 01:37:39;;;;;;;137.13;29.00;;;7.90;99.90;;;;;;5033898;28;20065;-91
2021/01/28 01:40:07;;;;;;;146.57;26.65;;;7.90;99.90;;;;;;4999637;28;20053;-92
2021/01/28 01:42:33;;;;;;;158.20;30.48;;;7.90;99.90;;;;;;5014048;28;20020;-92
2021/01/28 01:45:00;;;;;;;134.95;26.33;;;7.90;99.90;;;;;;5042889;28;20400;-92
2021/01/28 01:47:44;;;;;;;143.32;27.25;;;7.90;99.90;;;;;;5021970;28;20030;-92
2021/01/28 01:50:25;;;;;;;132.20;24.88;;;7.90;99.90;;;;;;5034979;28;20120;-91
2021/01/28 01:52:51;;;;;;;125.82;24.73;;;7.90;99.90;;;;;;5038617;28;20029;-91
2021/01/28 01:55:18;;;;;;;144.43;24.70;;;7.90;99.90;;;;;;5004664;28;20416;-92
2021/01/28 01:57:44;;;;;;;142.20;25.95;;;8.00;99.90;;;;;;5037704;28;20036;-93
2021/01/28 02:00:15;;;;;;;126.75;24.77;;;7.90;99.90;;;;;;5033049;28;20465;-92
2021/01/28 02:02:44;;;;;;;95.65;21.42;;;7.90;99.90;;;;;;5037381;28;20021;-92
2021/01/28 02:05:24;;;;;;;93.85;19.02;;;8.00;99.90;;;;;;5037014;28;20027;-91
2021/01/28 02:07:50;;;;;;;130.02;22.75;;;8.00;99.90;;;;;;5034743;28;20025;-92
2021/01/28 02:10:18;;;;;;;144.77;24.50;;;8.00;99.90;;;;;;5037155;28;20043;-91
2021/01/28 02:12:44;;;;;;;158.23;25.80;;;8.00;99.90;;;;;;5037184;28;20071;-91
2021/01/28 02:15:11;;;;;;;146.40;26.75;;;8.00;99.90;;;;;;5037249;28;20025;-91
2021/01/28 02:17:39;;;;;;;141.48;24.40;;;8.00;99.90;;;;;;5036495;28;20119;-90
2021/01/28 02:20:23;;;;;;;111.35;21.67;;;8.00;99.90;;;;;;5037075;28;20036;-90
2021/01/28 02:23:10;;;;;;;115.75;19.27;;;8.00;99.90;;;;;;5037392;28;20029;-93
2021/01/28 02:25:38;;;;;;;69.15;17.98;;;8.00;99.90;;;;;;5007708;28;640106;-93
2021/01/28 02:28:09;;;;;;;142.38;23.05;;;8.10;99.90;;;;;;5048700;28;20098;-92
2021/01/28 02:30:37;;;;;;;166.43;26.20;;;8.10;99.90;;;;;;5049314;28;20041;-92
2021/01/28 02:33:04;;;;;;;177.20;28.60;;;8.10;99.90;;;;;;5032314;28;20465;-92
2021/01/28 02:35:32;;;;;;;146.40;28.60;;;8.00;99.90;;;;;;5037415;28;20033;-91
2021/01/28 02:38:03;;;;;;;127.68;24.25;;;8.00;99.90;;;;;;5021637;28;20029;-92
2021/01/28 02:40:30;;;;;;;86.80;21.13;;;8.00;99.90;;;;;;5054981;28;20462;-91
2021/01/28 02:42:56;;;;;;;84.85;19.02;;;8.00;99.90;;;;;;5037872;28;20056;-92
2021/01/28 02:45:27;;;;;;;87.22;18.77;;;8.10;99.90;;;;;;5020342;28;20037;-92
2021/01/28 02:47:56;;;;;;;77.45;16.55;;;8.10;99.90;;;;;;5037185;28;20059;-91
2021/01/28 02:50:23;;;;;;;73.88;16.52;;;8.10;99.90;;;;;;5035100;28;20031;-92
2021/01/28 02:53:02;;;;;;;78.13;18.05;;;8.10;99.90;;;;;;5037078;28;20025;-91
2021/01/28 02:55:30;;;;;;;107.72;18.38;;;8.10;99.90;;;;;;5036864;28;20033;-91
2021/01/28 02:57:56;;;;;;;85.78;19.00;;;8.20;99.90;;;;;;5053968;28;20083;-91
2021/01/28 03:00:34;;;;;;;153.50;23.40;;;8.10;99.90;;;;;;5036201;28;20529;-91
2021/01/28 03:03:05;;;;;;;131.15;24.73;;;8.10;99.90;;;;;;5037094;28;20083;-92
2021/01/28 03:05:31;;;;;;;219.35;28.27;;;8.10;99.90;;;;;;5041651;28;20048;-91
2021/01/28 03:07:57;;;;;;;173.70;30.98;;;8.10;99.90;;;;;;5010471;28;20025;-90
2021/01/28 03:10:23;;;;;;;271.08;35.13;;;8.10;99.90;;;;;;5019905;28;20025;-91
2021/01/28 03:12:49;;;;;;;163.20;30.75;;;8.00;99.80;;;;;;5003918;28;20048;-91
2021/01/28 03:15:18;;;;;;;186.68;29.08;;;7.90;99.80;;;;;;5019458;28;20033;-91
2021/01/28 03:17:43;;;;;;;151.55;28.58;;;7.90;99.80;;;;;;5049830;28;20024;-88
2021/01/28 03:20:10;;;;;;;216.23;32.25;;;7.90;99.90;;;;;;5031436;28;20044;-88
2021/01/28 03:22:37;;;;;;;426.50;37.92;;;7.80;99.80;;;;;;5053748;28;20013;-87
2021/01/28 03:25:04;;;;;;;307.52;36.22;;;7.80;99.90;;;;;;5035547;28;20026;-91
2021/01/28 03:27:30;;;;;;;188.52;31.00;;;7.70;99.90;;;;;;5039221;28;20040;-90
2021/01/28 03:29:56;;;;;;;96.60;28.17;;;7.70;99.90;;;;;;5024451;28;20092;-91
2021/01/28 03:32:22;;;;;;;170.07;28.10;;;7.70;99.90;;;;;;5046967;28;20096;-91
2021/01/28 03:34:47;;;;;;;143.23;24.88;;;7.70;99.90;;;;;;5032902;28;20032;-91
2021/01/28 03:37:13;;;;;;;114.30;22.38;;;7.70;99.90;;;;;;5036708;28;20124;-92
2021/01/28 03:39:39;;;;;;;102.90;21.15;;;7.80;99.90;;;;;;5036071;28;21323;-91
2021/01/28 03:42:04;;;;;;;92.82;19.52;;;7.80;99.90;;;;;;5003859;28;20021;-92
2021/01/28 03:44:31;;;;;;;94.70;21.77;;;7.80;99.90;;;;;;5024021;28;20029;-91
2021/01/28 03:46:57;;;;;;;151.00;24.38;;;7.90;99.90;;;;;;5032061;28;20022;-92
2021/01/28 03:49:23;;;;;;;141.48;23.77;;;7.90;99.90;;;;;;5035726;28;20487;-92
2021/01/28 03:51:48;;;;;;;168.93;26.27;;;7.90;99.90;;;;;;5035833;28;20120;-90
2021/01/28 03:54:14;;;;;;;128.52;27.05;;;7.90;99.90;;;;;;5036469;28;20119;-92
2021/01/28 03:56:39;;;;;;;153.68;25.00;;;7.90;99.90;;;;;;5019778;28;20090;-91
2021/01/28 03:59:05;;;;;;;85.60;20.95;;;7.90;99.90;;;;;;5036441;28;20075;-91
2021/01/28 04:01:31;;;;;;;90.53;19.80;;;7.90;99.90;;;;;;5036426;28;20524;-91
2021/01/28 04:03:56;;;;;;;84.47;20.02;;;7.90;99.90;;;;;;5033435;28;20029;-92
2021/01/28 04:06:22;;;;;;;65.28;18.85;;;7.90;99.90;;;;;;5019941;28;20029;-91
2021/01/28 04:08:48;;;;;;;57.80;18.67;;;8.00;99.90;;;;;;5036096;28;20025;-90
2021/01/28 04:11:13;;;;;;;66.05;17.80;;;8.00;99.90;;;;;;5019840;28;20028;-91
2021/01/28 04:13:39;;;;;;;65.85;19.38;;;8.00;99.90;;;;;;5031910;28;20486;-91
2021/01/28 04:16:05;;;;;;;90.30;20.55;;;8.00;99.90;;;;;;5019699;28;20065;-91
2021/01/28 04:18:30;;;;;;;69.32;18.38;;;8.00;99.90;;;;;;5029253;28;20033;-91
2021/01/28 04:20:59;;;;;;;80.60;19.75;;;8.10;99.90;;;;;;5035625;28;20473;-91
2021/01/28 04:23:25;;;;;;;103.18;21.67;;;8.10;99.90;;;;;;5002729;28;20033;-89
2021/01/28 04:25:50;;;;;;;117.40;23.13;;;8.10;99.90;;;;;;5018432;28;20045;-91
2021/01/28 04:28:16;;;;;;;144.63;27.17;;;8.10;99.90;;;;;;5019117;28;20029;-91
2021/01/28 04:30:41;;;;;;;148.43;25.80;;;8.00;99.90;;;;;;5018912;28;20051;-91
2021/01/28 04:33:09;;;;;;;136.25;29.75;;;8.00;99.90;;;;;;5019134;28;20469;-90
2021/01/28 04:35:34;;;;;;;126.57;27.38;;;8.00;99.80;;;;;;5035734;28;20534;-89
2021/01/28 04:38:00;;;;;;;107.68;26.90;;;8.00;99.90;;;;;;5023073;28;20029;-91
2021/01/28 04:40:32;;;;;;;94.03;24.90;;;7.90;99.80;;;;;;5012588;28;20045;-90
2021/01/28 04:43:02;;;;;;;129.38;25.80;;;8.00;99.90;;;;;;5031406;28;20108;-91
2021/01/28 04:45:30;;;;;;;120.30;24.33;;;7.90;99.80;;;;;;5011561;28;20030;-92
2021/01/28 04:47:59;;;;;;;143.23;28.58;;;7.90;99.80;;;;;;5030622;28;20021;-91
2021/01/28 04:50:33;;;;;;;134.95;25.23;;;7.80;99.80;;;;;;5036338;28;20025;-91
2021/01/28 04:53:04;;;;;;;98.72;25.73;;;7.80;99.80;;;;;;5023413;28;20034;-91
2021/01/28 04:55:40;;;;;;;164.18;28.08;;;7.80;99.80;;;;;;5034756;28;20029;-90
2021/01/28 04:58:06;;;;;;;72.13;23.73;;;7.80;99.70;;;;;;5046651;28;20095;-90
2021/01/28 05:00:32;;;;;;;118.00;24.75;;;7.80;99.80;;;;;;5034037;28;20659;-90
2021/01/28 05:03:06;;;;;;;144.50;27.08;;;7.80;99.80;;;;;;4991305;28;20046;-91
2021/01/28 05:05:32;;;;;;;96.22;22.35;;;7.80;99.90;;;;;;5035248;28;20087;-91
2021/01/28 05:07:57;;;;;;;129.48;25.38;;;7.70;99.90;;;;;;4992580;28;20029;-90
2021/01/28 05:10:26;;;;;;;118.45;26.58;;;7.70;99.90;;;;;;5019086;28;20035;-91
2021/01/28 05:12:56;;;;;;;314.00;33.85;;;7.70;99.80;;;;;;5035425;28;20025;-92
2021/01/28 05:15:30;;;;;;;120.63;26.15;;;7.70;99.80;;;;;;5018227;28;20048;-91
2021/01/28 05:18:24;;;;;;;267.50;29.67;;;7.60;99.80;;;;;;5034344;28;20117;-92
2021/01/28 05:20:50;;;;;;;184.38;27.95;;;7.70;99.80;;;;;;5013671;28;20042;-89
2021/01/28 05:23:32;;;;;;;171.02;28.10;;;7.70;99.90;;;;;;5033806;28;20061;-91
2021/01/28 05:25:58;;;;;;;462.83;43.55;;;7.60;99.80;;;;;;5038539;28;20550;-91
2021/01/28 05:28:41;;;;;;;154.40;24.52;;;7.60;99.80;;;;;;5035521;28;20029;-91
2021/01/28 05:31:25;;;;;;;211.05;28.63;;;7.60;99.90;;;;;;5029157;28;20029;-91
2021/01/28 05:33:50;;;;;;;131.95;23.30;;;7.60;99.80;;;;;;5033933;28;20025;-90
2021/01/28 05:36:23;;;;;;;109.47;21.92;;;7.60;99.90;;;;;;5035594;28;20033;-91
2021/01/28 05:38:51;;;;;;;114.25;22.70;;;7.60;99.90;;;;;;5027093;28;20382;-91
2021/01/28 05:41:33;;;;;;;137.25;24.80;;;7.60;99.90;;;;;;5034842;28;20035;-92
2021/01/28 05:44:18;;;;;;;83.53;18.83;;;7.60;99.90;;;;;;5038615;28;20025;-92
2021/01/28 05:47:17;;;;;;;140.38;20.00;;;7.60;99.90;;;;;;5052400;28;20040;-92
2021/01/28 05:49:44;;;;;;;85.93;19.50;;;7.70;99.90;;;;;;5029666;28;20033;-92
2021/01/28 05:52:19;;;;;;;109.40;22.17;;;7.70;99.90;;;;;;5033318;28;20040;-92
2021/01/28 05:55:02;;;;;;;72.10;19.67;;;7.70;99.90;;;;;;5033300;28;20104;-92
2021/01/28 05:57:44;;;;;;;78.72;19.13;;;7.70;99.80;;;;;;5055134;28;20102;-92
2021/01/28 06:00:24;;;;;;;84.65;17.98;;;7.70;99.80;;;;;;5044213;28;20025;-92
2021/01/28 06:02:59;;;;;;;71.05;16.08;;;7.70;99.80;;;;;;5038381;28;20102;-89
2021/01/28 06:05:56;;;;;;;82.85;18.20;;;7.70;99.90;;;;;;5047549;28;20033;-91
2021/01/28 06:09:18;;;;;;;67.32;18.27;;;7.70;99.80;;;;;;5056350;28;20021;-92
2021/01/28 06:12:05;;;;;;;66.40;17.52;;;7.70;99.80;;;;;;5036440;28;20061;-90
2021/01/28 06:14:59;;;;;;;38.10;12.80;;;7.70;99.80;;;;;;5054849;28;20114;-92
2021/01/28 06:17:51;;;;;;;38.28;10.77;;;7.70;99.80;;;;;;5049998;28;20026;-91
2021/01/28 06:20:36;;;;;;;33.30;9.75;;;7.60;99.70;;;;;;5033003;28;20018;-91
2021/01/28 06:23:27;;;;;;;25.77;8.65;;;7.60;99.70;;;;;;5056717;28;20048;-92
2021/01/28 06:26:11;;;;;;;26.58;7.53;;;7.60;99.70;;;;;;5015118;28;20048;-93
2021/01/28 06:29:27;;;;;;;31.17;7.38;;;7.60;99.80;;;;;;5032529;28;20028;-93
2021/01/28 06:32:17;;;;;;;24.73;6.65;;;7.60;99.80;;;;;;5007953;28;20025;-91
2021/01/28 06:35:04;;;;;;;16.70;6.32;;;7.60;99.80;;;;;;5054913;28;20029;-91
2021/01/28 06:37:33;;;;;;;19.42;6.53;;;7.60;99.80;;;;;;5037542;28;20033;-93
2021/01/28 06:39:59;;;;;;;20.83;6.38;;;7.50;99.80;;;;;;5051278;28;20053;-92
2021/01/28 06:42:36;;;;;;;17.58;5.97;;;7.50;99.80;;;;;;5050079;28;20504;-92
2021/01/28 06:45:14;;;;;;;17.60;6.25;;;7.50;99.80;;;;;;5033274;28;20029;-92
2021/01/28 06:47:46;;;;;;;20.77;6.60;;;7.50;99.80;;;;;;5031659;28;20036;-92
2021/01/28 06:51:00;;;;;;;18.48;6.50;;;7.50;99.90;;;;;;5030560;28;20099;-88
2021/01/28 06:53:45;;;;;;;19.13;6.13;;;7.50;99.90;;;;;;4976819;28;20056;-92
2021/01/28 06:56:53;;;;;;;25.58;7.47;;;7.40;99.90;;;;;;5034969;28;20025;-91
2021/01/28 06:59:40;;;;;;;21.70;6.45;;;7.40;99.90;;;;;;5033464;28;20274;-93
2021/01/28 07:02:12;;;;;;;20.40;6.63;;;7.40;99.90;;;;;;5046317;28;20104;-93
2021/01/28 07:04:46;;;;;;;25.40;6.95;;;7.40;99.90;;;;;;5027747;28;20108;-91
2021/01/28 07:07:12;;;;;;;24.25;6.35;;;7.40;99.90;;;;;;5036803;28;20030;-92
2021/01/28 07:09:44;;;;;;;21.88;6.63;;;7.40;99.90;;;;;;5035188;28;20468;-92
2021/01/28 07:12:15;;;;;;;20.83;6.32;;;7.40;99.90;;;;;;5052843;28;20810;-91
2021/01/28 07:14:41;;;;;;;24.38;7.63;;;7.40;99.90;;;;;;5036007;28;20472;-92
2021/01/28 07:17:17;;;;;;;18.52;6.57;;;7.40;99.90;;;;;;5020588;28;20108;-94
2021/01/28 07:20:27;;;;;;;28.38;7.60;;;7.40;99.90;;;;;;5052588;28;20047;-94
2021/01/28 07:22:53;;;;;;;25.98;8.00;;;7.40;99.90;;;;;;5030697;28;20029;-95
2021/01/28 07:25:34;;;;;;;18.75;6.28;;;7.30;99.90;;;;;;5035475;28;20429;-91
2021/01/28 07:28:04;;;;;;;21.15;6.70;;;7.30;99.90;;;;;;5033340;28;20393;-93
2021/01/28 07:30:45;;;;;;;22.17;7.20;;;7.30;99.90;;;;;;5032169;28;20507;-93
2021/01/28 07:33:24;;;;;;;26.10;7.55;;;7.30;99.90;;;;;;5034802;28;20027;-94
2021/01/28 07:35:50;;;;;;;19.95;7.65;;;7.30;99.90;;;;;;5034840;28;20037;-92
2021/01/28 07:38:28;;;;;;;20.77;6.93;;;7.30;99.90;;;;;;5032180;28;20426;-92
2021/01/28 07:40:59;;;;;;;21.08;7.57;;;7.20;99.90;;;;;;5047097;28;20049;-95
2021/01/28 07:43:29;;;;;;;;;;;7.20;99.90;;;;;;5036310;28;20112;-92
2021/01/28 07:46:16;;;;;;;21.60;7.00;;;7.20;99.90;;;;;;5033636;28;19948;-90
2021/01/28 07:48:46;;;;;;;21.48;7.30;;;7.20;99.90;;;;;;5037409;28;20064;-95
2021/01/28 07:51:35;;;;;;;23.80;7.63;;;7.20;99.90;;;;;;5038188;28;20511;-94
2021/01/28 07:54:03;;;;;;;15.45;6.30;;;7.10;99.90;;;;;;5057424;28;20028;-92
2021/01/28 07:56:35;;;;;;;19.30;7.07;;;7.10;99.90;;;;;;5036940;28;20040;-95
2021/01/28 07:59:06;;;;;;;16.75;6.75;;;7.10;99.90;;;;;;5053065;28;20500;-95
2021/01/28 08:01:32;;;;;;;18.67;6.05;;;7.10;99.90;;;;;;5037651;28;20032;-94
2021/01/28 08:04:14;;;;;;;16.63;6.35;;;7.10;99.90;;;;;;5003185;28;20026;-95
2021/01/28 08:06:40;;;;;;;17.98;6.82;;;7.10;99.90;;;;;;5035212;28;20033;-95
2021/01/28 08:09:08;;;;;;;19.25;6.20;;;7.10;99.90;;;;;;5021103;28;20060;-95
2021/01/28 08:11:34;;;;;;;22.60;7.55;;;7.10;99.90;;;;;;5037970;28;20021;-96
2021/01/28 08:14:02;;;;;;;19.88;7.00;;;7.10;99.90;;;;;;5049753;28;20029;-96
2021/01/28 08:16:30;;;;;;;17.30;6.07;;;7.10;99.90;;;;;;5009701;28;20030;-93
2021/01/28 08:19:04;;;;;;;17.45;6.35;;;7.10;99.90;;;;;;5054821;28;20032;-94
2021/01/28 08:21:31;;;;;;;16.90;5.82;;;7.10;99.90;;;;;;5042855;28;20029;-93
2021/01/28 08:24:11;;;;;;;17.85;6.80;;;7.10;99.90;;;;;;5032799;28;20053;-96
2021/01/28 08:26:40;;;;;;;14.15;6.18;;;7.10;99.90;;;;;;5048391;28;20132;-96
2021/01/28 08:29:14;;;;;;;18.60;6.03;;;7.10;99.90;;;;;;5040585;28;20051;-94
2021/01/28 08:31:41;;;;;;;14.27;6.38;;;7.10;99.90;;;;;;5039935;28;20086;-95
2021/01/28 08:34:12;;;;;;;17.05;7.00;;;7.10;99.90;;;;;;5050256;28;20048;-96
2021/01/28 08:36:54;;;;;;;14.90;6.35;;;7.10;99.90;;;;;;5022380;28;20167;-95
2021/01/28 08:39:33;;;;;;;23.15;6.75;;;7.10;99.90;;;;;;5046488;28;20017;-95
2021/01/28 08:42:09;;;;;;;16.55;6.05;;;7.10;99.90;;;;;;5067618;28;20053;-90
2021/01/28 08:44:36;;;;;;;16.30;6.30;;;7.10;99.90;;;;;;5058069;28;20029;-96
2021/01/28 08:47:19;;;;;;;22.73;6.90;;;7.10;99.90;;;;;;5039634;28;20071;-96
2021/01/28 08:50:05;;;;;;;22.27;6.63;;;7.10;99.90;;;;;;5042659;28;20005;-96
2021/01/28 08:52:30;;;;;;;21.02;7.45;;;7.10;99.90;;;;;;5037124;28;20033;-94
2021/01/28 08:54:56;;;;;;;19.55;6.57;;;7.10;99.90;;;;;;5030688;23;20048;-89
2021/01/28 08:57:24;;;;;;;17.45;6.40;;;7.10;99.90;;;;;;5037831;28;20029;-88
2021/01/28 09:00:01;;;;;;;14.73;6.15;;;7.10;99.90;;;;;;5068749;28;20458;-88
2021/01/28 09:02:31;;;;;;;18.63;6.97;;;7.10;99.90;;;;;;5065409;28;20070;-88
2021/01/28 09:05:08;;;;;;;15.13;6.40;;;7.10;99.90;;;;;;5066773;28;20047;-89
2021/01/28 09:07:54;;;;;;;18.80;6.82;;;7.10;99.90;;;;;;5068391;28;20417;-88
2021/01/28 09:10:35;;;;;;;18.65;7.15;;;7.10;99.90;;;;;;5072302;28;20060;-89
2021/01/28 09:13:26;;;;;;;17.40;7.03;;;7.10;99.90;;;;;;5064281;28;20029;-88
2021/01/28 09:16:18;;;;;;;15.93;7.00;;;7.10;99.90;;;;;;5071876;28;20048;-88
2021/01/28 09:18:46;;;;;;;17.52;7.05;;;7.10;99.90;;;;;;5075752;28;20066;-88
2021/01/28 09:21:16;;;;;;;20.13;7.35;;;7.10;99.90;;;;;;5074219;28;20044;-88
2021/01/28 09:24:02;;;;;;;18.15;7.60;;;7.00;99.90;;;;;;5069517;28;20030;-89
2021/01/28 09:26:33;;;;;;;18.83;7.30;;;7.10;99.90;;;;;;5069628;28;20027;-88
2021/01/28 09:29:20;;;;;;;20.05;7.43;;;7.00;99.90;;;;;;5072059;28;20025;-89
2021/01/28 09:31:49;;;;;;;20.38;8.32;;;7.00;99.90;;;;;;5063907;28;20492;-89
2021/01/28 09:34:18;;;;;;;20.15;8.13;;;7.00;99.90;;;;;;5062339;28;20023;-89
2021/01/28 09:36:57;;;;;;;21.48;8.18;;;7.00;99.90;;;;;;5070699;28;20594;-90
2021/01/28 09:39:53;;;;;;;16.38;7.68;;;7.00;99.90;;;;;;5070910;28;20012;-89
2021/01/28 09:42:33;;;;;;;25.40;9.63;;;7.00;99.90;;;;;;5069747;28;20364;-90
2021/01/28 09:45:05;;;;;;;21.42;8.85;;;7.00;99.90;;;;;;5068872;28;20025;-90
2021/01/28 09:47:31;;;;;;;18.00;8.25;;;7.00;99.90;;;;;;5066506;28;20033;-90
2021/01/28 09:50:07;;;;;;;22.98;9.57;;;7.00;99.90;;;;;;5073010;28;20031;-89
2021/01/28 09:52:39;;;;;;;17.60;8.27;;;7.00;99.90;;;;;;5067758;28;20025;-89
2021/01/28 09:55:11;;;;;;;21.70;9.75;;;7.00;99.90;;;;;;5066275;28;20127;-86
2021/01/28 09:57:37;;;;;;;23.42;10.15;;;7.00;99.90;;;;;;5066832;28;20111;-89
2021/01/28 10:00:07;;;;;;;18.65;9.20;;;7.00;99.90;;;;;;5055553;28;20025;-88
2021/01/28 10:02:46;;;;;;;33.90;12.43;;;7.00;99.90;;;;;;5062644;28;20021;-89
2021/01/28 10:05:14;;;;;;;21.55;10.35;;;7.00;99.90;;;;;;5073357;28;20290;-88
2021/01/28 10:07:40;;;;;;;25.30;10.38;;;7.00;99.90;;;;;;5071649;28;20021;-89
2021/01/28 10:10:09;;;;;;;20.02;9.93;;;7.00;99.90;;;;;;5038510;28;20497;-88
2021/01/28 10:12:35;;;;;;;24.15;9.98;;;7.00;99.90;;;;;;5073174;28;20050;-88
2021/01/28 10:15:02;;;;;;;22.67;9.70;;;7.00;99.90;;;;;;5064595;28;20035;-88
2021/01/28 10:17:28;;;;;;;23.15;11.07;;;7.00;99.90;;;;;;5074865;28;20023;-88
2021/01/28 10:19:54;;;;;;;18.55;9.43;;;7.10;99.90;;;;;;5054430;28;20371;-89
2021/01/28 10:22:21;;;;;;;21.00;9.43;;;7.10;99.90;;;;;;5058192;28;20029;-89
2021/01/28 10:24:47;;;;;;;21.85;9.68;;;7.00;99.90;;;;;;5055016;28;20029;-89
2021/01/28 10:27:13;;;;;;;27.02;11.15;;;7.00;99.90;;;;;;5056465;28;20025;-89
2021/01/28 10:29:41;;;;;;;24.15;10.07;;;7.00;99.90;;;;;;5057630;28;20447;-88
2021/01/28 10:32:10;;;;;;;21.30;9.85;;;7.00;99.90;;;;;;5045204;28;20438;-89
2021/01/28 10:34:36;;;;;;;22.65;9.75;;;7.00;99.90;;;;;;5064976;28;20068;-89
2021/01/28 10:37:04;;;;;;;24.42;10.68;;;7.10;99.90;;;;;;5069105;28;20043;-88
2021/01/28 10:39:29;;;;;;;23.02;10.52;;;7.00;99.90;;;;;;5065540;28;20480;-89
2021/01/28 10:41:55;;;;;;;21.42;10.00;;;7.10;99.90;;;;;;5063184;28;20021;-90
2021/01/28 10:44:21;;;;;;;20.75;10.88;;;7.00;99.90;;;;;;5055882;28;20111;-89
2021/01/28 10:46:47;;;;;;;24.92;10.38;;;7.00;99.90;;;;;;5051553;28;20056;-90
2021/01/28 10:49:14;;;;;;;24.75;10.45;;;7.10;99.90;;;;;;5054844;28;20114;-89
2021/01/28 10:51:40;;;;;;;24.45;11.55;;;7.00;99.90;;;;;;5037669;28;20029;-88
2021/01/28 10:54:06;;;;;;;21.38;11.30;;;7.10;99.90;;;;;;5056089;28;20092;-88
2021/01/28 10:56:32;;;;;;;25.67;10.85;;;7.10;99.90;;;;;;5080637;28;20118;-88
2021/01/28 10:58:57;;;;;;;23.55;10.52;;;7.00;99.90;;;;;;5062165;28;20017;-88
2021/01/28 11:01:23;;;;;;;21.27;10.23;;;7.00;99.90;;;;;;5066844;28;20031;-88
2021/01/28 11:03:49;;;;;;;18.73;10.50;;;7.00;99.90;;;;;;5074733;28;20052;-89
2021/01/28 11:06:14;;;;;;;23.33;11.23;;;7.00;99.90;;;;;;5046300;28;20586;-89
2021/01/28 11:08:40;;;;;;;20.10;9.85;;;7.00;99.90;;;;;;5057955;28;20386;-88
2021/01/28 11:11:06;;;;;;;26.55;12.45;;;7.00;99.90;;;;;;5073150;28;20028;-88
2021/01/28 11:13:33;;;;;;;22.63;11.80;;;7.00;99.90;;;;;;5055087;28;20031;-89
2021/01/28 11:15:58;;;;;;;25.40;11.70;;;7.00;99.90;;;;;;5068010;28;20017;-89
2021/01/28 11:18:24;;;;;;;24.17;12.68;;;7.10;99.90;;;;;;5056226;28;20029;-89
2021/01/28 11:20:50;;;;;;;27.27;13.93;;;7.00;99.90;;;;;;5048683;28;20020;-89
2021/01/28 11:23:16;;;;;;;32.95;14.18;;;7.10;99.90;;;;;;5054443;28;20052;-89
2021/01/28 11:25:41;;;;;;;35.88;16.50;;;7.00;99.90;;;;;;5051190;28;20082;-88
2021/01/28 11:28:07;;;;;;;31.23;15.57;;;7.00;99.90;;;;;;5037168;28;20033;-89
2021/01/28 11:30:34;;;;;;;28.75;13.48;;;7.00;99.90;;;;;;5052665;28;20543;-88
2021/01/28 11:33:02;;;;;;;40.63;16.88;;;7.10;99.90;;;;;;5065884;28;20031;-88
2021/01/28 11:35:31;;;;;;;34.35;16.58;;;7.10;99.90;;;;;;5066030;28;20067;-88
2021/01/28 11:38:01;;;;;;;33.53;14.85;;;7.10;99.90;;;;;;5069642;28;20021;-88
2021/01/28 11:40:28;;;;;;;29.40;15.07;;;7.10;99.90;;;;;;5019346;22;20058;-89
2021/01/28 11:42:54;;;;;;;34.92;16.02;;;7.10;99.90;;;;;;4999037;28;20467;-88
2021/01/28 11:45:23;;;;;;;30.67;16.17;;;7.10;99.90;;;;;;4981734;28;20030;-87
2021/01/28 11:47:49;;;;;;;30.77;15.25;;;7.10;99.90;;;;;;5014522;28;20076;-88
2021/01/28 11:50:15;;;;;;;29.90;14.00;;;7.10;99.90;;;;;;4979753;28;20038;-88
2021/01/28 11:52:40;;;;;;;41.90;15.60;;;7.20;99.90;;;;;;4995112;28;20456;-88
2021/01/28 11:55:10;;;;;;;29.33;14.93;;;7.20;99.90;;;;;;4983358;28;20057;-88
2021/01/28 11:57:36;;;;;;;34.88;15.20;;;7.20;99.90;;;;;;5002899;28;20021;-88
2021/01/28 12:00:03;;;;;;;32.80;15.63;;;7.10;99.90;;;;;;4981825;28;20030;-88
2021/01/28 12:02:29;;;;;;;40.15;15.85;;;7.20;99.90;;;;;;4980043;28;20068;-89
2021/01/28 12:04:54;;;;;;;47.25;16.38;;;7.20;99.90;;;;;;4980624;28;20558;-89
2021/01/28 12:07:20;;;;;;;29.55;14.48;;;7.20;99.90;;;;;;4964323;28;20030;-88
2021/01/28 12:09:46;;;;;;;27.73;12.80;;;7.20;99.90;;;;;;4993295;28;20062;-89
2021/01/28 12:12:12;;;;;;;32.67;13.68;;;7.20;99.90;;;;;;4980381;28;20022;-88
2021/01/28 12:14:38;;;;;;;30.13;12.93;;;7.20;99.90;;;;;;4960881;28;20033;-89
2021/01/28 12:17:03;;;;;;;29.50;13.23;;;7.20;99.90;;;;;;4980176;28;20032;-89
2021/01/28 12:19:29;;;;;;;35.28;14.00;;;7.30;99.90;;;;;;4998548;28;20422;-88
2021/01/28 12:21:55;;;;;;;30.45;14.00;;;7.30;99.90;;;;;;4975601;28;20057;-89
2021/01/28 12:24:30;;;;;;;28.13;12.55;;;7.30;99.90;;;;;;4987552;28;20407;-87
2021/01/28 12:26:58;;;;;;;28.00;12.15;;;7.30;99.90;;;;;;4962780;28;20026;-88
2021/01/28 12:29:24;;;;;;;26.52;12.38;;;7.30;99.90;;;;;;4979537;28;20026;-88
2021/01/28 12:31:50;;;;;;;30.45;12.80;;;7.30;99.90;;;;;;4995294;28;20056;-88
2021/01/28 12:34:17;;;;;;;26.63;11.85;;;7.30;99.90;;;;;;4978930;28;20038;-88
2021/01/28 12:36:42;;;;;;;24.27;11.73;;;7.30;99.90;;;;;;4965875;28;20029;-89
2021/01/28 12:39:08;;;;;;;29.75;12.75;;;7.30;99.90;;;;;;4974331;28;20041;-89
2021/01/28 12:41:34;;;;;;;28.42;11.63;;;7.30;99.90;;;;;;4963575;28;20132;-89
2021/01/28 12:44:00;;;;;;;25.23;10.90;;;7.30;99.90;;;;;;4987110;28;20078;-89
2021/01/28 12:46:25;;;;;;;22.63;11.02;;;7.30;99.90;;;;;;4961915;28;20099;-88
2021/01/28 12:48:51;;;;;;;22.10;10.75;;;7.20;99.90;;;;;;4990580;28;20401;-89
2021/01/28 12:51:17;;;;;;;26.58;11.95;;;7.30;99.90;;;;;;4983174;28;20368;-89
2021/01/28 12:53:42;;;;;;;30.17;12.63;;;7.30;99.90;;;;;;4996930;28;20053;-89
2021/01/28 12:56:08;;;;;;;30.38;11.40;;;7.30;99.90;;;;;;4989790;28;20034;-89